sensor_id;sensor_type;location;lat;lon;timestamp;P1;durP1;ratioP1;P2;durP2;ratioP2
47529;SDS011;33272;51.922;7.730;2023-05-21T00:02:20;5.77;;;4.60;;
47529;SDS011;33272;51.922;7.730;2023-05-21T00:04:47;5.53;;;4.40;;
47529;SDS011;33272;51.922;7.730;2023-05-21T00:07:15;5.53;;;4.50;;
47529;SDS011;33272;51.922;7.730;2023-05-21T00:09:42;4.93;;;4.20;;
47529;SDS011;33272;51.922;7.730;2023-05-21T00:12:10;4.53;;;4.13;;
47529;SDS011;33272;51.922;7.730;2023-05-21T00:14:37;6.37;;;5.00;;
47529;SDS011;33272;51.922;7.730;2023-05-21T00:17:04;6.07;;;4.40;;
47529;SDS011;33272;51.922;7.730;2023-05-21T00:19:31;5.10;;;4.60;;
47529;SDS011;33272;51.922;7.730;2023-05-21T00:21:58;5.10;;;4.43;;
47529;SDS011;33272;51.922;7.730;2023-05-21T00:24:27;5.73;;;4.40;;
47529;SDS011;33272;51.922;7.730;2023-05-21T00:26:54;5.73;;;4.80;;
47529;SDS011;33272;51.922;7.730;2023-05-21T00:29:23;5.90;;;4.70;;
47529;SDS011;33272;51.922;7.730;2023-05-21T00:31:51;6.33;;;5.10;;
47529;SDS011;33272;51.922;7.730;2023-05-21T00:34:18;6.27;;;5.00;;
47529;SDS011;33272;51.922;7.730;2023-05-21T00:36:45;5.57;;;4.50;;
47529;SDS011;33272;51.922;7.730;2023-05-21T00:39:12;5.40;;;4.40;;
47529;SDS011;33272;51.922;7.730;2023-05-21T00:41:40;7.40;;;5.33;;
47529;SDS011;33272;51.922;7.730;2023-05-21T00:44:07;5.27;;;4.77;;
47529;SDS011;33272;51.922;7.730;2023-05-21T00:46:39;5.47;;;4.90;;
47529;SDS011;33272;51.922;7.730;2023-05-21T00:49:08;5.63;;;4.53;;
47529;SDS011;33272;51.922;7.730;2023-05-21T00:51:35;5.83;;;4.93;;
47529;SDS011;33272;51.922;7.730;2023-05-21T00:54:02;5.90;;;5.30;;
47529;SDS011;33272;51.922;7.730;2023-05-21T00:56:29;7.53;;;4.97;;
47529;SDS011;33272;51.922;7.730;2023-05-21T00:58:57;7.10;;;5.20;;
47529;SDS011;33272;51.922;7.730;2023-05-21T01:01:29;6.13;;;4.97;;
47529;SDS011;33272;51.922;7.730;2023-05-21T01:03:59;5.83;;;5.10;;
47529;SDS011;33272;51.922;7.730;2023-05-21T01:06:26;5.97;;;5.37;;
47529;SDS011;33272;51.922;7.730;2023-05-21T01:08:53;7.57;;;5.17;;
47529;SDS011;33272;51.922;7.730;2023-05-21T01:11:21;8.27;;;5.47;;
47529;SDS011;33272;51.922;7.730;2023-05-21T01:14:02;6.70;;;5.13;;
47529;SDS011;33272;51.922;7.730;2023-05-21T01:16:31;7.67;;;5.40;;
47529;SDS011;33272;51.922;7.730;2023-05-21T01:19:01;5.90;;;5.00;;
47529;SDS011;33272;51.922;7.730;2023-05-21T01:21:30;6.90;;;5.60;;
47529;SDS011;33272;51.922;7.730;2023-05-21T01:24:03;6.67;;;4.97;;
47529;SDS011;33272;51.922;7.730;2023-05-21T01:26:31;5.67;;;4.73;;
47529;SDS011;33272;51.922;7.730;2023-05-21T01:29:02;4.93;;;4.43;;
47529;SDS011;33272;51.922;7.730;2023-05-21T01:31:33;6.67;;;5.07;;
47529;SDS011;33272;51.922;7.730;2023-05-21T01:34:07;5.87;;;5.30;;
47529;SDS011;33272;51.922;7.730;2023-05-21T01:36:40;7.10;;;5.40;;
47529;SDS011;33272;51.922;7.730;2023-05-21T01:39:15;5.37;;;4.77;;
47529;SDS011;33272;51.922;7.730;2023-05-21T01:41:48;5.80;;;5.30;;
47529;SDS011;33272;51.922;7.730;2023-05-21T01:44:18;7.97;;;5.27;;
47529;SDS011;33272;51.922;7.730;2023-05-21T01:46:45;5.37;;;4.87;;
47529;SDS011;33272;51.922;7.730;2023-05-21T01:49:13;6.57;;;5.43;;
47529;SDS011;33272;51.922;7.730;2023-05-21T01:51:42;7.93;;;5.70;;
47529;SDS011;33272;51.922;7.730;2023-05-21T01:54:09;6.87;;;5.40;;
47529;SDS011;33272;51.922;7.730;2023-05-21T01:56:38;6.03;;;4.60;;
47529;SDS011;33272;51.922;7.730;2023-05-21T01:59:07;6.17;;;5.27;;
47529;SDS011;33272;51.922;7.730;2023-05-21T02:01:34;7.77;;;5.20;;
47529;SDS011;33272;51.922;7.730;2023-05-21T02:04:01;6.13;;;5.00;;
47529;SDS011;33272;51.922;7.730;2023-05-21T02:06:28;5.87;;;5.10;;
47529;SDS011;33272;51.922;7.730;2023-05-21T02:08:55;7.03;;;5.63;;
47529;SDS011;33272;51.922;7.730;2023-05-21T02:11:23;7.10;;;5.67;;
47529;SDS011;33272;51.922;7.730;2023-05-21T02:13:52;8.33;;;5.70;;
47529;SDS011;33272;51.922;7.730;2023-05-21T02:16:19;6.60;;;5.37;;
47529;SDS011;33272;51.922;7.730;2023-05-21T02:18:46;7.13;;;5.60;;
47529;SDS011;33272;51.922;7.730;2023-05-21T02:21:15;6.80;;;6.07;;
47529;SDS011;33272;51.922;7.730;2023-05-21T02:23:42;6.23;;;5.50;;
47529;SDS011;33272;51.922;7.730;2023-05-21T02:26:09;7.17;;;5.93;;
47529;SDS011;33272;51.922;7.730;2023-05-21T02:28:36;6.00;;;5.30;;
47529;SDS011;33272;51.922;7.730;2023-05-21T02:31:05;6.40;;;5.33;;
47529;SDS011;33272;51.922;7.730;2023-05-21T02:33:32;6.63;;;5.67;;
47529;SDS011;33272;51.922;7.730;2023-05-21T02:35:59;6.40;;;5.70;;
47529;SDS011;33272;51.922;7.730;2023-05-21T02:38:26;6.63;;;6.03;;
47529;SDS011;33272;51.922;7.730;2023-05-21T02:40:53;7.50;;;5.57;;
47529;SDS011;33272;51.922;7.730;2023-05-21T02:43:20;6.90;;;6.00;;
47529;SDS011;33272;51.922;7.730;2023-05-21T02:45:47;6.37;;;5.53;;
47529;SDS011;33272;51.922;7.730;2023-05-21T02:48:16;9.77;;;5.63;;
47529;SDS011;33272;51.922;7.730;2023-05-21T02:50:43;7.20;;;5.70;;
47529;SDS011;33272;51.922;7.730;2023-05-21T02:53:10;6.97;;;6.17;;
47529;SDS011;33272;51.922;7.730;2023-05-21T02:55:37;7.33;;;5.93;;
47529;SDS011;33272;51.922;7.730;2023-05-21T02:58:06;8.07;;;6.27;;
47529;SDS011;33272;51.922;7.730;2023-05-21T03:00:33;7.80;;;5.87;;
47529;SDS011;33272;51.922;7.730;2023-05-21T03:03:00;7.57;;;6.33;;
47529;SDS011;33272;51.922;7.730;2023-05-21T03:05:28;7.03;;;5.57;;
47529;SDS011;33272;51.922;7.730;2023-05-21T03:07:55;6.23;;;5.67;;
47529;SDS011;33272;51.922;7.730;2023-05-21T03:10:22;7.90;;;5.83;;
47529;SDS011;33272;51.922;7.730;2023-05-21T03:12:49;7.57;;;6.13;;
47529;SDS011;33272;51.922;7.730;2023-05-21T03:15:18;6.60;;;5.90;;
47529;SDS011;33272;51.922;7.730;2023-05-21T03:17:47;8.57;;;5.70;;
47529;SDS011;33272;51.922;7.730;2023-05-21T03:20:15;8.57;;;6.70;;
47529;SDS011;33272;51.922;7.730;2023-05-21T03:22:44;7.80;;;6.40;;
47529;SDS011;33272;51.922;7.730;2023-05-21T03:25:12;7.13;;;6.43;;
47529;SDS011;33272;51.922;7.730;2023-05-21T03:27:39;7.77;;;6.30;;
47529;SDS011;33272;51.922;7.730;2023-05-21T03:30:07;7.50;;;6.37;;
47529;SDS011;33272;51.922;7.730;2023-05-21T03:32:34;7.07;;;6.37;;
47529;SDS011;33272;51.922;7.730;2023-05-21T03:35:02;8.47;;;6.37;;
47529;SDS011;33272;51.922;7.730;2023-05-21T03:37:30;8.43;;;6.07;;
47529;SDS011;33272;51.922;7.730;2023-05-21T03:39:58;7.97;;;6.90;;
47529;SDS011;33272;51.922;7.730;2023-05-21T03:42:25;7.23;;;6.53;;
47529;SDS011;33272;51.922;7.730;2023-05-21T03:44:52;8.17;;;6.90;;
47529;SDS011;33272;51.922;7.730;2023-05-21T03:47:20;7.67;;;6.13;;
47529;SDS011;33272;51.922;7.730;2023-05-21T03:49:46;6.97;;;6.30;;
47529;SDS011;33272;51.922;7.730;2023-05-21T03:52:13;7.27;;;6.37;;
47529;SDS011;33272;51.922;7.730;2023-05-21T03:54:40;7.33;;;5.97;;
47529;SDS011;33272;51.922;7.730;2023-05-21T03:57:09;7.13;;;6.17;;
47529;SDS011;33272;51.922;7.730;2023-05-21T03:59:36;7.97;;;6.80;;
47529;SDS011;33272;51.922;7.730;2023-05-21T04:02:03;8.50;;;6.33;;
47529;SDS011;33272;51.922;7.730;2023-05-21T04:04:30;7.30;;;6.53;;
47529;SDS011;33272;51.922;7.730;2023-05-21T04:06:57;7.97;;;6.83;;
47529;SDS011;33272;51.922;7.730;2023-05-21T04:09:24;7.77;;;6.97;;
47529;SDS011;33272;51.922;7.730;2023-05-21T04:11:52;7.17;;;6.37;;
47529;SDS011;33272;51.922;7.730;2023-05-21T04:14:21;6.83;;;6.13;;
47529;SDS011;33272;51.922;7.730;2023-05-21T04:16:48;6.30;;;5.70;;
47529;SDS011;33272;51.922;7.730;2023-05-21T04:19:15;9.17;;;6.67;;
47529;SDS011;33272;51.922;7.730;2023-05-21T04:21:42;7.50;;;6.33;;
47529;SDS011;33272;51.922;7.730;2023-05-21T04:24:09;8.27;;;6.83;;
47529;SDS011;33272;51.922;7.730;2023-05-21T04:26:36;7.60;;;6.90;;
47529;SDS011;33272;51.922;7.730;2023-05-21T04:29:06;8.87;;;6.47;;
47529;SDS011;33272;51.922;7.730;2023-05-21T04:31:35;9.20;;;6.50;;
47529;SDS011;33272;51.922;7.730;2023-05-21T04:34:02;7.57;;;6.50;;
47529;SDS011;33272;51.922;7.730;2023-05-21T04:36:29;6.13;;;5.53;;
47529;SDS011;33272;51.922;7.730;2023-05-21T04:38:57;7.30;;;6.50;;
47529;SDS011;33272;51.922;7.730;2023-05-21T04:41:24;9.20;;;7.27;;
47529;SDS011;33272;51.922;7.730;2023-05-21T04:43:52;7.00;;;6.20;;
47529;SDS011;33272;51.922;7.730;2023-05-21T04:46:20;8.27;;;6.53;;
47529;SDS011;33272;51.922;7.730;2023-05-21T04:48:51;8.53;;;7.30;;
47529;SDS011;33272;51.922;7.730;2023-05-21T04:51:19;7.13;;;6.43;;
47529;SDS011;33272;51.922;7.730;2023-05-21T04:53:48;9.13;;;7.00;;
47529;SDS011;33272;51.922;7.730;2023-05-21T04:56:15;8.17;;;6.77;;
47529;SDS011;33272;51.922;7.730;2023-05-21T04:58:43;7.07;;;6.37;;
47529;SDS011;33272;51.922;7.730;2023-05-21T05:01:11;6.90;;;6.20;;
47529;SDS011;33272;51.922;7.730;2023-05-21T05:03:40;7.43;;;6.53;;
47529;SDS011;33272;51.922;7.730;2023-05-21T05:06:08;9.13;;;6.60;;
47529;SDS011;33272;51.922;7.730;2023-05-21T05:08:35;7.30;;;6.50;;
47529;SDS011;33272;51.922;7.730;2023-05-21T05:11:02;8.50;;;6.80;;
47529;SDS011;33272;51.922;7.730;2023-05-21T05:13:30;8.97;;;6.63;;
47529;SDS011;33272;51.922;7.730;2023-05-21T05:15:57;8.10;;;6.50;;
47529;SDS011;33272;51.922;7.730;2023-05-21T05:18:25;7.47;;;6.60;;
47529;SDS011;33272;51.922;7.730;2023-05-21T05:20:52;8.00;;;6.80;;
47529;SDS011;33272;51.922;7.730;2023-05-21T05:23:21;7.40;;;6.60;;
47529;SDS011;33272;51.922;7.730;2023-05-21T05:25:48;7.97;;;6.87;;
47529;SDS011;33272;51.922;7.730;2023-05-21T05:28:14;7.77;;;6.90;;
47529;SDS011;33272;51.922;7.730;2023-05-21T05:30:41;8.63;;;6.83;;
47529;SDS011;33272;51.922;7.730;2023-05-21T05:33:08;7.50;;;6.20;;
47529;SDS011;33272;51.922;7.730;2023-05-21T05:35:36;8.27;;;7.47;;
47529;SDS011;33272;51.922;7.730;2023-05-21T05:38:03;8.10;;;6.43;;
47529;SDS011;33272;51.922;7.730;2023-05-21T05:40:34;6.60;;;6.00;;
47529;SDS011;33272;51.922;7.730;2023-05-21T05:43:01;7.20;;;6.50;;
47529;SDS011;33272;51.922;7.730;2023-05-21T05:45:28;8.83;;;6.43;;
47529;SDS011;33272;51.922;7.730;2023-05-21T05:47:55;8.80;;;7.17;;
47529;SDS011;33272;51.922;7.730;2023-05-21T05:50:22;7.63;;;6.80;;
47529;SDS011;33272;51.922;7.730;2023-05-21T05:52:49;7.90;;;7.17;;
47529;SDS011;33272;51.922;7.730;2023-05-21T05:55:16;8.63;;;6.23;;
47529;SDS011;33272;51.922;7.730;2023-05-21T05:57:44;8.50;;;6.83;;
47529;SDS011;33272;51.922;7.730;2023-05-21T06:00:11;7.40;;;6.60;;
47529;SDS011;33272;51.922;7.730;2023-05-21T06:02:39;8.50;;;6.43;;
47529;SDS011;33272;51.922;7.730;2023-05-21T06:05:07;8.73;;;6.63;;
47529;SDS011;33272;51.922;7.730;2023-05-21T06:07:35;7.83;;;6.70;;
47529;SDS011;33272;51.922;7.730;2023-05-21T06:10:03;9.97;;;6.80;;
47529;SDS011;33272;51.922;7.730;2023-05-21T06:12:31;7.90;;;6.37;;
47529;SDS011;33272;51.922;7.730;2023-05-21T06:15:00;10.13;;;7.20;;
47529;SDS011;33272;51.922;7.730;2023-05-21T06:17:27;7.90;;;7.00;;
47529;SDS011;33272;51.922;7.730;2023-05-21T06:19:54;6.93;;;6.23;;
47529;SDS011;33272;51.922;7.730;2023-05-21T06:22:21;7.13;;;6.10;;
47529;SDS011;33272;51.922;7.730;2023-05-21T06:24:48;8.87;;;6.70;;
47529;SDS011;33272;51.922;7.730;2023-05-21T06:27:15;10.90;;;6.53;;
47529;SDS011;33272;51.922;7.730;2023-05-21T06:29:42;7.83;;;6.57;;
47529;SDS011;33272;51.922;7.730;2023-05-21T06:32:11;7.07;;;6.37;;
47529;SDS011;33272;51.922;7.730;2023-05-21T06:34:38;7.87;;;6.90;;
47529;SDS011;33272;51.922;7.730;2023-05-21T06:37:06;8.87;;;6.47;;
47529;SDS011;33272;51.922;7.730;2023-05-21T06:39:32;8.50;;;6.27;;
47529;SDS011;33272;51.922;7.730;2023-05-21T06:42:00;8.17;;;7.00;;
47529;SDS011;33272;51.922;7.730;2023-05-21T06:44:27;7.83;;;7.03;;
47529;SDS011;33272;51.922;7.730;2023-05-21T06:46:54;7.73;;;6.20;;
47529;SDS011;33272;51.922;7.730;2023-05-21T06:49:22;7.43;;;6.40;;
47529;SDS011;33272;51.922;7.730;2023-05-21T06:51:49;9.53;;;6.27;;
47529;SDS011;33272;51.922;7.730;2023-05-21T06:54:16;8.97;;;6.63;;
47529;SDS011;33272;51.922;7.730;2023-05-21T06:56:43;7.83;;;6.10;;
47529;SDS011;33272;51.922;7.730;2023-05-21T06:59:10;8.07;;;6.73;;
47529;SDS011;33272;51.922;7.730;2023-05-21T07:01:37;7.53;;;6.60;;
47529;SDS011;33272;51.922;7.730;2023-05-21T07:04:06;7.43;;;6.73;;
47529;SDS011;33272;51.922;7.730;2023-05-21T07:06:34;9.00;;;7.00;;
47529;SDS011;33272;51.922;7.730;2023-05-21T07:09:01;8.30;;;6.40;;
47529;SDS011;33272;51.922;7.730;2023-05-21T07:11:30;8.83;;;7.03;;
47529;SDS011;33272;51.922;7.730;2023-05-21T07:13:57;7.53;;;6.67;;
47529;SDS011;33272;51.922;7.730;2023-05-21T07:16:25;8.53;;;6.80;;
47529;SDS011;33272;51.922;7.730;2023-05-21T07:18:52;8.50;;;6.73;;
47529;SDS011;33272;51.922;7.730;2023-05-21T07:21:19;9.90;;;6.43;;
47529;SDS011;33272;51.922;7.730;2023-05-21T07:23:48;9.23;;;7.03;;
47529;SDS011;33272;51.922;7.730;2023-05-21T07:26:15;8.80;;;6.83;;
47529;SDS011;33272;51.922;7.730;2023-05-21T07:28:42;7.30;;;6.60;;
47529;SDS011;33272;51.922;7.730;2023-05-21T07:31:09;6.77;;;6.03;;
47529;SDS011;33272;51.922;7.730;2023-05-21T07:33:37;7.33;;;6.53;;
47529;SDS011;33272;51.922;7.730;2023-05-21T07:36:04;7.17;;;6.40;;
47529;SDS011;33272;51.922;7.730;2023-05-21T07:38:31;7.27;;;6.23;;
47529;SDS011;33272;51.922;7.730;2023-05-21T07:41:00;7.17;;;6.20;;
47529;SDS011;33272;51.922;7.730;2023-05-21T07:43:27;8.50;;;6.53;;
47529;SDS011;33272;51.922;7.730;2023-05-21T07:45:54;8.40;;;6.30;;
47529;SDS011;33272;51.922;7.730;2023-05-21T07:48:21;9.27;;;7.00;;
47529;SDS011;33272;51.922;7.730;2023-05-21T07:50:48;7.90;;;7.10;;
47529;SDS011;33272;51.922;7.730;2023-05-21T07:53:16;8.00;;;6.30;;
47529;SDS011;33272;51.922;7.730;2023-05-21T07:55:43;7.97;;;6.50;;
47529;SDS011;33272;51.922;7.730;2023-05-21T07:58:14;9.83;;;7.13;;
47529;SDS011;33272;51.922;7.730;2023-05-21T08:00:43;10.47;;;7.33;;
47529;SDS011;33272;51.922;7.730;2023-05-21T08:03:12;8.47;;;7.20;;
47529;SDS011;33272;51.922;7.730;2023-05-21T08:05:41;8.47;;;6.67;;
47529;SDS011;33272;51.922;7.730;2023-05-21T08:08:12;9.00;;;7.17;;
47529;SDS011;33272;51.922;7.730;2023-05-21T08:10:39;8.43;;;7.27;;
47529;SDS011;33272;51.922;7.730;2023-05-21T08:13:06;8.73;;;6.80;;
47529;SDS011;33272;51.922;7.730;2023-05-21T08:15:34;8.60;;;7.53;;
47529;SDS011;33272;51.922;7.730;2023-05-21T08:18:01;7.83;;;6.90;;
47529;SDS011;33272;51.922;7.730;2023-05-21T08:20:28;7.77;;;6.83;;
47529;SDS011;33272;51.922;7.730;2023-05-21T08:22:56;8.13;;;7.20;;
47529;SDS011;33272;51.922;7.730;2023-05-21T08:25:24;8.67;;;7.23;;
47529;SDS011;33272;51.922;7.730;2023-05-21T08:27:51;7.97;;;7.17;;
47529;SDS011;33272;51.922;7.730;2023-05-21T08:30:18;7.67;;;6.83;;
47529;SDS011;33272;51.922;7.730;2023-05-21T08:32:47;7.50;;;6.80;;
47529;SDS011;33272;51.922;7.730;2023-05-21T08:35:14;9.63;;;7.27;;
47529;SDS011;33272;51.922;7.730;2023-05-21T08:37:41;8.63;;;7.07;;
47529;SDS011;33272;51.922;7.730;2023-05-21T08:40:08;10.00;;;7.53;;
47529;SDS011;33272;51.922;7.730;2023-05-21T08:42:39;7.70;;;6.90;;
47529;SDS011;33272;51.922;7.730;2023-05-21T08:45:10;8.83;;;7.30;;
47529;SDS011;33272;51.922;7.730;2023-05-21T08:47:40;8.53;;;7.63;;
47529;SDS011;33272;51.922;7.730;2023-05-21T08:50:10;9.47;;;7.60;;
47529;SDS011;33272;51.922;7.730;2023-05-21T08:52:39;11.20;;;8.23;;
47529;SDS011;33272;51.922;7.730;2023-05-21T08:55:07;10.40;;;7.93;;
47529;SDS011;33272;51.922;7.730;2023-05-21T08:57:35;8.40;;;7.30;;
47529;SDS011;33272;51.922;7.730;2023-05-21T09:00:02;8.77;;;7.17;;
47529;SDS011;33272;51.922;7.730;2023-05-21T09:02:32;9.60;;;8.23;;
47529;SDS011;33272;51.922;7.730;2023-05-21T09:05:02;8.70;;;7.60;;
47529;SDS011;33272;51.922;7.730;2023-05-21T09:07:35;9.97;;;7.80;;
47529;SDS011;33272;51.922;7.730;2023-05-21T09:10:12;9.83;;;7.60;;
47529;SDS011;33272;51.922;7.730;2023-05-21T09:12:42;8.97;;;8.07;;
47529;SDS011;33272;51.922;7.730;2023-05-21T09:15:09;8.83;;;7.90;;
47529;SDS011;33272;51.922;7.730;2023-05-21T09:17:36;9.73;;;7.97;;
47529;SDS011;33272;51.922;7.730;2023-05-21T09:20:07;8.20;;;7.10;;
47529;SDS011;33272;51.922;7.730;2023-05-21T09:22:40;10.27;;;7.70;;
47529;SDS011;33272;51.922;7.730;2023-05-21T09:25:08;9.07;;;8.07;;
47529;SDS011;33272;51.922;7.730;2023-05-21T09:27:36;9.97;;;8.23;;
47529;SDS011;33272;51.922;7.730;2023-05-21T09:30:04;9.93;;;8.93;;
47529;SDS011;33272;51.922;7.730;2023-05-21T09:32:36;8.40;;;7.50;;
47529;SDS011;33272;51.922;7.730;2023-05-21T09:35:05;11.37;;;7.40;;
47529;SDS011;33272;51.922;7.730;2023-05-21T09:37:36;8.87;;;7.97;;
47529;SDS011;33272;51.922;7.730;2023-05-21T09:40:12;9.87;;;7.93;;
47529;SDS011;33272;51.922;7.730;2023-05-21T09:42:40;10.70;;;8.00;;
47529;SDS011;33272;51.922;7.730;2023-05-21T09:45:10;9.10;;;7.17;;
47529;SDS011;33272;51.922;7.730;2023-05-21T09:47:40;8.90;;;7.60;;
47529;SDS011;33272;51.922;7.730;2023-05-21T09:50:09;10.17;;;8.43;;
47529;SDS011;33272;51.922;7.730;2023-05-21T09:52:36;10.43;;;7.50;;
47529;SDS011;33272;51.922;7.730;2023-05-21T09:55:04;10.10;;;9.03;;
47529;SDS011;33272;51.922;7.730;2023-05-21T09:57:40;9.07;;;8.17;;
47529;SDS011;33272;51.922;7.730;2023-05-21T10:00:08;11.37;;;8.63;;
47529;SDS011;33272;51.922;7.730;2023-05-21T10:02:45;10.43;;;8.63;;
47529;SDS011;33272;51.922;7.730;2023-05-21T10:05:14;9.50;;;8.57;;
47529;SDS011;33272;51.922;7.730;2023-05-21T10:07:44;10.70;;;8.47;;
47529;SDS011;33272;51.922;7.730;2023-05-21T10:10:15;12.50;;;9.40;;
47529;SDS011;33272;51.922;7.730;2023-05-21T10:12:46;12.73;;;9.27;;
47529;SDS011;33272;51.922;7.730;2023-05-21T10:15:18;11.07;;;9.07;;
47529;SDS011;33272;51.922;7.730;2023-05-21T10:17:49;9.93;;;8.93;;
47529;SDS011;33272;51.922;7.730;2023-05-21T10:20:17;11.90;;;9.63;;
47529;SDS011;33272;51.922;7.730;2023-05-21T10:22:44;12.00;;;9.80;;
47529;SDS011;33272;51.922;7.730;2023-05-21T10:25:12;14.40;;;10.53;;
47529;SDS011;33272;51.922;7.730;2023-05-21T10:27:40;12.43;;;9.63;;
47529;SDS011;33272;51.922;7.730;2023-05-21T10:30:09;11.50;;;10.30;;
47529;SDS011;33272;51.922;7.730;2023-05-21T10:32:37;13.57;;;9.33;;
47529;SDS011;33272;51.922;7.730;2023-05-21T10:35:06;11.97;;;10.47;;
47529;SDS011;33272;51.922;7.730;2023-05-21T10:37:34;12.77;;;10.53;;
47529;SDS011;33272;51.922;7.730;2023-05-21T10:40:01;12.33;;;10.77;;
47529;SDS011;33272;51.922;7.730;2023-05-21T10:42:42;11.77;;;10.57;;
47529;SDS011;33272;51.922;7.730;2023-05-21T10:45:47;11.07;;;9.53;;
47529;SDS011;33272;51.922;7.730;2023-05-21T10:48:52;13.90;;;10.80;;
47529;SDS011;33272;51.922;7.730;2023-05-21T10:51:44;12.03;;;10.50;;
47529;SDS011;33272;51.922;7.730;2023-05-21T10:57:23;12.13;;;10.83;;
47529;SDS011;33272;51.922;7.730;2023-05-21T11:00:25;11.83;;;10.63;;
47529;SDS011;33272;51.922;7.730;2023-05-21T11:02:56;12.00;;;10.53;;
47529;SDS011;33272;51.922;7.730;2023-05-21T11:08:20;11.60;;;10.40;;
47529;SDS011;33272;51.922;7.730;2023-05-21T11:10:52;15.57;;;10.83;;
47529;SDS011;33272;51.922;7.730;2023-05-21T11:13:21;12.17;;;10.40;;
47529;SDS011;33272;51.922;7.730;2023-05-21T11:16:12;12.40;;;11.10;;
47529;SDS011;33272;51.922;7.730;2023-05-21T11:19:01;13.17;;;11.13;;
47529;SDS011;33272;51.922;7.730;2023-05-21T11:21:29;11.87;;;10.43;;
47529;SDS011;33272;51.922;7.730;2023-05-21T11:24:00;11.57;;;10.47;;
47529;SDS011;33272;51.922;7.730;2023-05-21T11:29:39;15.70;;;11.07;;
47529;SDS011;33272;51.922;7.730;2023-05-21T11:32:11;12.23;;;10.13;;
47529;SDS011;33272;51.922;7.730;2023-05-21T11:34:46;12.80;;;11.10;;
47529;SDS011;33272;51.922;7.730;2023-05-21T11:37:23;12.63;;;10.33;;
47529;SDS011;33272;51.922;7.730;2023-05-21T11:40:17;11.23;;;10.07;;
47529;SDS011;33272;51.922;7.730;2023-05-21T11:42:50;13.33;;;10.17;;
47529;SDS011;33272;51.922;7.730;2023-05-21T11:45:18;11.70;;;10.50;;
47529;SDS011;33272;51.922;7.730;2023-05-21T11:47:47;10.73;;;9.63;;
47529;SDS011;33272;51.922;7.730;2023-05-21T11:50:17;13.53;;;10.30;;
47529;SDS011;33272;51.922;7.730;2023-05-21T11:52:45;13.63;;;9.80;;
47529;SDS011;33272;51.922;7.730;2023-05-21T11:55:12;11.63;;;10.33;;
47529;SDS011;33272;51.922;7.730;2023-05-21T11:57:40;11.40;;;10.20;;
47529;SDS011;33272;51.922;7.730;2023-05-21T12:00:12;11.83;;;10.63;;
47529;SDS011;33272;51.922;7.730;2023-05-21T12:02:44;11.80;;;10.60;;
47529;SDS011;33272;51.922;7.730;2023-05-21T12:05:13;12.07;;;10.27;;
47529;SDS011;33272;51.922;7.730;2023-05-21T12:07:44;12.83;;;10.50;;
47529;SDS011;33272;51.922;7.730;2023-05-21T12:10:14;14.23;;;10.93;;
47529;SDS011;33272;51.922;7.730;2023-05-21T12:12:41;11.93;;;10.47;;
47529;SDS011;33272;51.922;7.730;2023-05-21T12:15:08;12.30;;;11.00;;
47529;SDS011;33272;51.922;7.730;2023-05-21T12:17:37;11.07;;;9.97;;
47529;SDS011;33272;51.922;7.730;2023-05-21T12:20:04;14.40;;;10.00;;
47529;SDS011;33272;51.922;7.730;2023-05-21T12:22:34;13.40;;;10.73;;
47529;SDS011;33272;51.922;7.730;2023-05-21T12:25:09;11.67;;;10.17;;
47529;SDS011;33272;51.922;7.730;2023-05-21T12:27:37;11.60;;;10.40;;
47529;SDS011;33272;51.922;7.730;2023-05-21T12:30:06;11.00;;;9.80;;
47529;SDS011;33272;51.922;7.730;2023-05-21T12:32:34;11.83;;;10.63;;
47529;SDS011;33272;51.922;7.730;2023-05-21T12:35:07;11.30;;;10.20;;
47529;SDS011;33272;51.922;7.730;2023-05-21T12:37:34;11.63;;;10.40;;
47529;SDS011;33272;51.922;7.730;2023-05-21T12:40:02;13.60;;;10.03;;
47529;SDS011;33272;51.922;7.730;2023-05-21T12:42:33;11.87;;;10.10;;
47529;SDS011;33272;51.922;7.730;2023-05-21T12:45:04;10.90;;;9.90;;
47529;SDS011;33272;51.922;7.730;2023-05-21T12:47:33;12.40;;;10.20;;
47529;SDS011;33272;51.922;7.730;2023-05-21T12:50:01;12.27;;;10.40;;
47529;SDS011;33272;51.922;7.730;2023-05-21T12:52:33;11.90;;;10.70;;
47529;SDS011;33272;51.922;7.730;2023-05-21T12:55:00;12.00;;;10.07;;
47529;SDS011;33272;51.922;7.730;2023-05-21T12:57:33;10.73;;;9.57;;
47529;SDS011;33272;51.922;7.730;2023-05-21T13:00:03;12.20;;;11.00;;
47529;SDS011;33272;51.922;7.730;2023-05-21T13:02:33;12.00;;;10.73;;
47529;SDS011;33272;51.922;7.730;2023-05-21T13:05:04;11.23;;;10.13;;
47529;SDS011;33272;51.922;7.730;2023-05-21T13:07:34;12.87;;;10.37;;
47529;SDS011;33272;51.922;7.730;2023-05-21T13:10:03;11.90;;;10.37;;
47529;SDS011;33272;51.922;7.730;2023-05-21T13:12:32;14.83;;;11.03;;
47529;SDS011;33272;51.922;7.730;2023-05-21T13:15:01;12.23;;;10.70;;
47529;SDS011;33272;51.922;7.730;2023-05-21T13:17:32;13.67;;;11.37;;
47529;SDS011;33272;51.922;7.730;2023-05-21T13:20:08;13.27;;;10.90;;
47529;SDS011;33272;51.922;7.730;2023-05-21T13:22:38;11.37;;;10.23;;
47529;SDS011;33272;51.922;7.730;2023-05-21T13:25:07;11.57;;;10.37;;
47529;SDS011;33272;51.922;7.730;2023-05-21T13:27:35;13.00;;;11.67;;
47529;SDS011;33272;51.922;7.730;2023-05-21T13:30:04;14.77;;;11.70;;
47529;SDS011;33272;51.922;7.730;2023-05-21T13:32:33;11.20;;;9.83;;
47529;SDS011;33272;51.922;7.730;2023-05-21T13:35:01;12.47;;;11.17;;
47529;SDS011;33272;51.922;7.730;2023-05-21T13:37:28;12.93;;;11.53;;
47529;SDS011;33272;51.922;7.730;2023-05-21T13:39:55;14.23;;;11.60;;
47529;SDS011;33272;51.922;7.730;2023-05-21T13:42:23;14.20;;;12.37;;
47529;SDS011;33272;51.922;7.730;2023-05-21T13:44:50;13.00;;;11.27;;
47529;SDS011;33272;51.922;7.730;2023-05-21T13:47:18;16.37;;;14.67;;
47529;SDS011;33272;51.922;7.730;2023-05-21T13:49:45;14.20;;;12.70;;
47529;SDS011;33272;51.922;7.730;2023-05-21T13:52:12;18.27;;;12.70;;
47529;SDS011;33272;51.922;7.730;2023-05-21T13:54:40;13.00;;;11.60;;
47529;SDS011;33272;51.922;7.730;2023-05-21T13:57:08;13.27;;;11.87;;
47529;SDS011;33272;51.922;7.730;2023-05-21T13:59:35;13.23;;;11.80;;
47529;SDS011;33272;51.922;7.730;2023-05-21T14:02:04;13.27;;;11.90;;
47529;SDS011;33272;51.922;7.730;2023-05-21T14:04:34;11.67;;;10.47;;
47529;SDS011;33272;51.922;7.730;2023-05-21T14:07:01;12.90;;;10.20;;
47529;SDS011;33272;51.922;7.730;2023-05-21T14:09:28;11.20;;;10.10;;
47529;SDS011;33272;51.922;7.730;2023-05-21T14:11:55;11.27;;;10.17;;
47529;SDS011;33272;51.922;7.730;2023-05-21T14:14:22;12.13;;;10.73;;
47529;SDS011;33272;51.922;7.730;2023-05-21T14:16:50;11.93;;;10.70;;
47529;SDS011;33272;51.922;7.730;2023-05-21T14:19:17;11.33;;;10.13;;
47529;SDS011;33272;51.922;7.730;2023-05-21T14:21:45;11.03;;;9.93;;
47529;SDS011;33272;51.922;7.730;2023-05-21T14:24:12;12.00;;;9.83;;
47529;SDS011;33272;51.922;7.730;2023-05-21T14:26:39;11.43;;;10.23;;
47529;SDS011;33272;51.922;7.730;2023-05-21T14:29:07;12.50;;;10.13;;
47529;SDS011;33272;51.922;7.730;2023-05-21T14:31:34;10.77;;;9.67;;
47529;SDS011;33272;51.922;7.730;2023-05-21T14:34:02;11.70;;;10.00;;
47529;SDS011;33272;51.922;7.730;2023-05-21T14:36:30;10.63;;;9.63;;
47529;SDS011;33272;51.922;7.730;2023-05-21T14:38:59;10.47;;;9.47;;
47529;SDS011;33272;51.922;7.730;2023-05-21T14:41:26;10.90;;;9.80;;
47529;SDS011;33272;51.922;7.730;2023-05-21T14:43:54;11.13;;;9.90;;
47529;SDS011;33272;51.922;7.730;2023-05-21T14:46:21;12.03;;;10.30;;
47529;SDS011;33272;51.922;7.730;2023-05-21T14:48:48;10.80;;;9.80;;
47529;SDS011;33272;51.922;7.730;2023-05-21T14:51:15;11.33;;;9.73;;
47529;SDS011;33272;51.922;7.730;2023-05-21T14:53:42;11.03;;;10.00;;
47529;SDS011;33272;51.922;7.730;2023-05-21T14:56:10;11.43;;;10.33;;
47529;SDS011;33272;51.922;7.730;2023-05-21T14:58:37;13.30;;;9.93;;
47529;SDS011;33272;51.922;7.730;2023-05-21T15:01:04;10.93;;;9.83;;